createdAt,value
2022-11-12T00:00:54.004Z,22.25
2022-11-12T00:03:21.960Z,20.98
2022-11-12T00:05:48.717Z,21.76
2022-11-12T00:08:15.361Z,21.44
2022-11-12T00:10:42.030Z,22.24
2022-11-12T00:13:08.658Z,23.06
2022-11-12T00:15:36.116Z,23.53
2022-11-12T00:18:02.816Z,22.91
2022-11-12T00:20:29.513Z,21.79
2022-11-12T00:22:56.268Z,22.36
2022-11-12T00:25:22.872Z,22.53
2022-11-12T00:27:49.458Z,23.21
2022-11-12T00:30:16.469Z,23.33
2022-11-12T00:32:43.098Z,23.56
2022-11-12T00:35:13.636Z,24.16
2022-11-12T00:37:40.833Z,22.91
2022-11-12T00:40:08.762Z,23.11
2022-11-12T00:42:35.806Z,22.37
2022-11-12T00:45:02.430Z,23.17
2022-11-12T00:47:29.046Z,23.04
2022-11-12T00:49:55.648Z,23.04
2022-11-12T00:52:22.271Z,22.76
2022-11-12T00:54:48.937Z,23.56
2022-11-12T00:57:15.536Z,22.87
2022-11-12T00:59:42.149Z,21.80
2022-11-12T01:02:08.865Z,21.96
2022-11-12T01:04:35.493Z,22.63
2022-11-12T01:07:02.176Z,21.52
2022-11-12T01:09:28.873Z,22.01
2022-11-12T01:11:55.510Z,21.47
2022-11-12T01:14:22.127Z,22.55
2022-11-12T01:16:48.745Z,22.17
2022-11-12T01:19:15.422Z,20.61
2022-11-12T01:21:43.900Z,18.53
2022-11-12T01:24:11.568Z,18.96
2022-11-12T01:26:38.817Z,19.04
2022-11-12T01:29:05.507Z,19.17
2022-11-12T01:31:35.586Z,19.49
2022-11-12T01:34:05.517Z,19.33
2022-11-12T01:36:35.876Z,18.61
2022-11-12T01:39:03.571Z,19.11
2022-11-12T01:41:32.695Z,19.77
2022-11-12T01:44:16.140Z,19.28
2022-11-12T01:47:05.809Z,19.61
2022-11-12T01:49:48.821Z,20.99
2022-11-12T01:52:36.822Z,20.01
2022-11-12T01:55:25.512Z,20.06
2022-11-12T01:58:15.747Z,20.08
2022-11-12T02:00:42.681Z,20.83
2022-11-12T02:03:16.512Z,20.56
2022-11-12T02:05:46.178Z,20.94
2022-11-12T02:08:13.695Z,21.20
2022-11-12T02:10:40.834Z,21.52
2022-11-12T02:13:08.665Z,21.67
2022-11-12T02:15:36.808Z,21.48
2022-11-12T02:18:03.619Z,20.60
2022-11-12T02:20:35.075Z,20.74
2022-11-12T02:23:01.715Z,21.09
2022-11-12T02:25:28.673Z,20.20
2022-11-12T02:27:58.289Z,19.78
2022-11-12T02:30:38.112Z,19.43
2022-11-12T02:33:04.712Z,19.30
2022-11-12T02:35:32.229Z,17.87
2022-11-12T02:37:59.423Z,17.63
2022-11-12T02:40:26.510Z,17.12
2022-11-12T02:42:53.116Z,17.48
2022-11-12T02:45:20.041Z,18.56
2022-11-12T02:47:46.885Z,18.21
2022-11-12T02:50:13.487Z,17.88
2022-11-12T02:52:40.258Z,17.48
2022-11-12T02:55:08.738Z,18.05
2022-11-12T02:57:36.475Z,19.25
2022-11-12T03:00:09.725Z,19.93
2022-11-12T03:02:37.927Z,19.65
2022-11-12T03:05:04.747Z,20.32
2022-11-12T03:07:31.686Z,20.56
2022-11-12T03:09:58.275Z,20.31
2022-11-12T03:12:24.854Z,21.21
2022-11-12T03:14:51.441Z,21.45
2022-11-12T03:17:18.057Z,21.28
2022-11-12T03:19:44.985Z,20.71
2022-11-12T03:22:11.582Z,19.37
2022-11-12T03:24:38.182Z,19.41
2022-11-12T03:27:04.803Z,19.21
2022-11-12T03:29:31.391Z,20.06
2022-11-12T03:31:57.995Z,20.82
2022-11-12T03:34:24.611Z,20.20
2022-11-12T03:36:51.224Z,20.18
2022-11-12T03:39:17.844Z,20.85
2022-11-12T03:41:44.452Z,20.52
2022-11-12T03:44:11.103Z,20.37
2022-11-12T03:46:41.542Z,19.89
2022-11-12T03:49:10.706Z,20.36
2022-11-12T03:51:37.327Z,21.37
2022-11-12T03:54:04.162Z,21.52
2022-11-12T03:56:30.756Z,21.17
2022-11-12T03:58:57.364Z,21.28
2022-11-12T04:01:24.074Z,21.28
2022-11-12T04:03:50.867Z,21.02
2022-11-12T04:06:17.496Z,20.75
2022-11-12T04:08:44.453Z,20.03
2022-11-12T04:11:16.051Z,19.59
2022-11-12T04:14:02.624Z,20.07
2022-11-12T04:16:29.237Z,20.31
2022-11-12T04:18:59.056Z,19.64
2022-11-12T04:21:34.295Z,19.22
2022-11-12T04:24:02.122Z,18.90
2022-11-12T04:26:28.703Z,19.67
2022-11-12T04:28:55.301Z,19.40
2022-11-12T04:31:22.148Z,19.27
2022-11-12T04:33:48.787Z,18.37
2022-11-12T04:36:15.399Z,17.35
2022-11-12T04:38:42.019Z,17.34
2022-11-12T04:41:08.697Z,16.17
2022-11-12T04:43:35.334Z,15.77
2022-11-12T04:46:04.075Z,17.63
2022-11-12T04:48:31.023Z,17.24
2022-11-12T04:51:05.625Z,16.89
2022-11-12T04:53:32.268Z,17.09
2022-11-12T04:55:59.133Z,18.09
2022-11-12T04:58:26.207Z,17.30
2022-11-12T05:00:53.210Z,17.42
2022-11-12T05:03:19.867Z,16.74
2022-11-12T05:05:46.673Z,17.12
2022-11-12T05:08:13.425Z,17.14
2022-11-12T05:10:40.057Z,17.00
2022-11-12T05:13:08.591Z,15.99
2022-11-12T05:15:35.238Z,16.64
2022-11-12T05:18:01.909Z,16.97
2022-11-12T05:20:28.519Z,17.05
2022-11-12T05:23:06.374Z,16.76
2022-11-12T05:25:37.424Z,16.43
2022-11-12T05:28:06.708Z,16.24
2022-11-12T05:30:33.841Z,16.60
2022-11-12T05:33:00.477Z,16.76
2022-11-12T05:35:27.082Z,16.55
2022-11-12T05:37:53.661Z,16.70
2022-11-12T05:40:20.259Z,16.85
2022-11-12T05:42:46.882Z,16.96
2022-11-12T05:45:14.551Z,16.17
2022-11-12T05:47:41.419Z,16.15
2022-11-12T05:50:08.526Z,16.29
2022-11-12T05:52:35.150Z,16.10
2022-11-12T05:55:01.769Z,16.14
2022-11-12T05:57:28.363Z,15.74
2022-11-12T05:59:54.981Z,15.15
2022-11-12T06:02:21.798Z,14.98
2022-11-12T06:04:48.474Z,14.93
2022-11-12T06:07:15.112Z,15.50
2022-11-12T06:09:41.760Z,15.40
2022-11-12T06:12:08.397Z,15.64
2022-11-12T06:14:34.981Z,19.70
2022-11-12T06:17:01.581Z,16.31
2022-11-12T06:19:28.210Z,16.26
2022-11-12T06:21:54.882Z,17.17
2022-11-12T06:24:21.661Z,17.93
2022-11-12T06:26:48.305Z,17.39
2022-11-12T06:29:14.909Z,17.53
2022-11-12T06:31:41.511Z,17.55
2022-11-12T06:34:08.162Z,17.99
2022-11-12T06:36:35.559Z,18.41
2022-11-12T06:39:02.169Z,19.00
2022-11-12T06:41:28.815Z,18.74
2022-11-12T06:43:55.494Z,18.17
2022-11-12T06:46:22.136Z,17.81
2022-11-12T06:48:48.750Z,17.68
2022-11-12T06:51:20.704Z,18.41
2022-11-12T06:53:47.646Z,19.10
2022-11-12T06:56:15.181Z,18.69
2022-11-12T06:58:42.028Z,18.95
2022-11-12T07:01:12.873Z,18.02
2022-11-12T07:03:41.169Z,17.60
2022-11-12T07:06:11.138Z,17.53
2022-11-12T07:08:38.234Z,17.91
2022-11-12T07:11:06.326Z,18.02
2022-11-12T07:13:35.006Z,17.71
2022-11-12T07:16:02.404Z,17.52
2022-11-12T07:18:29.671Z,17.89
2022-11-12T07:21:04.813Z,18.29
2022-11-12T07:23:33.412Z,19.17
2022-11-12T07:26:04.890Z,18.63
2022-11-12T07:28:32.313Z,17.97
2022-11-12T07:31:01.651Z,19.60
2022-11-12T07:33:29.274Z,20.32
2022-11-12T07:36:01.930Z,21.49
2022-11-12T07:38:31.093Z,23.18
2022-11-12T07:41:04.613Z,21.47
2022-11-12T07:43:35.492Z,20.46
2022-11-12T07:46:11.026Z,19.88
2022-11-12T07:48:39.054Z,20.29
2022-11-12T07:51:07.546Z,19.55
2022-11-12T07:53:35.132Z,19.35
2022-11-12T07:56:02.966Z,18.43
2022-11-12T07:58:31.888Z,19.83
2022-11-12T08:01:06.846Z,21.45
2022-11-12T08:03:33.531Z,21.39
2022-11-12T08:06:01.219Z,21.42
2022-11-12T08:08:28.738Z,21.06
2022-11-12T08:10:56.914Z,20.97
2022-11-12T08:13:23.978Z,20.53
2022-11-12T08:15:52.471Z,20.37
2022-11-12T08:18:19.807Z,20.45
2022-11-12T08:20:46.521Z,20.47
2022-11-12T08:23:13.195Z,19.61
2022-11-12T08:25:39.836Z,20.06
2022-11-12T08:28:06.509Z,19.47
2022-11-12T08:30:33.163Z,18.85
2022-11-12T08:33:02.163Z,18.86
2022-11-12T08:35:30.229Z,19.69
2022-11-12T08:38:02.440Z,19.75
2022-11-12T08:40:31.359Z,19.34
2022-11-12T08:43:05.891Z,18.53
2022-11-12T08:45:34.889Z,18.88
2022-11-12T08:48:05.352Z,19.42
2022-11-12T08:50:33.246Z,18.09
2022-11-12T08:53:04.189Z,17.99
2022-11-12T08:55:32.070Z,18.35
2022-11-12T08:57:59.309Z,18.90
2022-11-12T09:00:25.932Z,18.91
2022-11-12T09:02:52.547Z,18.95
2022-11-12T09:05:19.266Z,17.95
2022-11-12T09:07:50.943Z,18.32
2022-11-12T09:10:18.120Z,18.47
2022-11-12T09:12:44.854Z,17.62
2022-11-12T09:18:00.659Z,18.10
2022-11-12T09:20:28.668Z,18.22
2022-11-12T09:23:00.152Z,18.76
2022-11-12T09:25:27.008Z,18.08
2022-11-12T09:27:54.194Z,17.63
2022-11-12T09:30:21.689Z,18.34
2022-11-12T09:32:48.463Z,17.29
2022-11-12T09:35:15.229Z,16.63
2022-11-12T09:37:41.837Z,17.28
2022-11-12T09:40:18.854Z,17.96
2022-11-12T09:42:52.327Z,17.60
2022-11-12T09:45:29.036Z,17.97
2022-11-12T09:48:06.482Z,17.16
2022-11-12T09:50:42.853Z,17.36
2022-11-12T09:53:34.068Z,17.13
2022-11-12T09:56:06.340Z,17.67
2022-11-12T09:58:33.345Z,17.81
2022-11-12T10:01:11.795Z,18.03
2022-11-12T10:04:01.474Z,19.24
2022-11-12T10:06:37.423Z,20.85
2022-11-12T10:09:44.333Z,20.05
2022-11-12T10:12:32.467Z,20.79
2022-11-12T10:15:20.255Z,21.26
2022-11-12T10:18:31.106Z,20.42
2022-11-12T10:21:21.710Z,20.60
2022-11-12T10:23:52.450Z,20.85
2022-11-12T10:26:25.323Z,20.70
2022-11-12T10:29:17.829Z,20.27
2022-11-12T10:31:47.284Z,20.36
2022-11-12T10:34:13.851Z,20.27
2022-11-12T10:36:56.433Z,19.58
2022-11-12T10:39:39.176Z,19.76
2022-11-12T10:42:10.039Z,18.93
2022-11-12T10:44:41.425Z,19.99
2022-11-12T10:47:34.931Z,20.22
2022-11-12T10:50:15.252Z,20.12
2022-11-12T10:52:56.452Z,20.00
2022-11-12T10:55:32.302Z,20.02
2022-11-12T10:58:10.847Z,19.68
2022-11-12T11:01:02.377Z,20.64
2022-11-12T11:03:37.505Z,20.07
2022-11-12T11:06:06.167Z,19.36
2022-11-12T11:08:41.765Z,19.99
2022-11-12T11:11:19.661Z,19.57
2022-11-12T11:13:52.866Z,20.08
2022-11-12T11:16:27.667Z,20.06
2022-11-12T11:19:05.002Z,19.31
2022-11-12T11:21:55.250Z,18.94
2022-11-12T11:24:43.812Z,18.78
2022-11-12T11:27:37.984Z,18.82
2022-11-12T11:30:12.054Z,18.27
2022-11-12T11:33:10.726Z,18.83
2022-11-12T11:35:55.584Z,19.70
2022-11-12T11:38:37.380Z,19.72
2022-11-12T11:41:06.634Z,19.89
2022-11-12T11:43:55.136Z,19.21
2022-11-12T11:46:45.042Z,20.12
2022-11-12T11:49:36.508Z,20.10
2022-11-12T11:52:41.451Z,20.23
2022-11-12T11:55:14.012Z,19.98
2022-11-12T11:57:52.743Z,19.69
2022-11-12T12:00:22.394Z,20.16
2022-11-12T12:03:05.521Z,20.56
2022-11-12T12:06:06.973Z,20.99
2022-11-12T12:08:49.859Z,20.78
2022-11-12T12:11:23.686Z,20.18
2022-11-12T12:14:46.002Z,20.39
2022-11-12T12:17:57.094Z,20.61
2022-11-12T12:20:29.199Z,20.25
2022-11-12T12:23:18.597Z,20.62
2022-11-12T12:25:48.090Z,20.69
2022-11-12T12:28:32.687Z,19.76
2022-11-12T12:31:16.529Z,20.30
2022-11-12T12:34:02.164Z,20.40
2022-11-12T12:36:40.205Z,20.44
2022-11-12T12:39:12.761Z,20.34
2022-11-12T12:42:16.085Z,20.09
2022-11-12T12:44:55.848Z,20.07
2022-11-12T12:47:22.918Z,20.09
2022-11-12T12:49:51.366Z,20.40
2022-11-12T12:52:17.984Z,20.43
2022-11-12T12:54:50.251Z,21.35
2022-11-12T12:57:37.110Z,20.09
2022-11-12T13:00:37.050Z,20.48
2022-11-12T13:03:03.912Z,19.99
2022-11-12T13:05:36.708Z,19.92
2022-11-12T13:08:14.431Z,20.85
2022-11-12T13:10:40.954Z,21.16
2022-11-12T13:13:19.484Z,21.44
2022-11-12T13:15:47.472Z,20.48
2022-11-12T13:18:38.647Z,20.26
2022-11-12T13:21:14.770Z,20.96
2022-11-12T13:23:50.594Z,20.47
2022-11-12T13:26:45.055Z,20.48
2022-11-12T13:29:27.753Z,20.18
2022-11-12T13:32:33.294Z,20.96
2022-11-12T13:35:11.992Z,21.17
2022-11-12T13:37:46.553Z,21.79
2022-11-12T13:40:17.167Z,21.27
2022-11-12T13:42:43.902Z,20.83
2022-11-12T13:45:11.878Z,20.98
2022-11-12T13:47:38.657Z,20.82
2022-11-12T13:50:13.702Z,20.69
2022-11-12T13:52:41.459Z,20.82
2022-11-12T13:55:20.140Z,21.03
2022-11-12T13:57:56.282Z,20.77
2022-11-12T14:00:26.315Z,19.49
2022-11-12T14:03:05.279Z,20.73
2022-11-12T14:05:36.433Z,19.66
2022-11-12T14:08:45.303Z,19.32
2022-11-12T14:11:30.603Z,18.69
2022-11-12T14:14:02.938Z,19.30
2022-11-12T14:16:46.860Z,19.31
2022-11-12T14:19:16.262Z,19.03
2022-11-12T14:21:43.049Z,19.71
2022-11-12T14:24:12.236Z,19.04
2022-11-12T14:26:41.991Z,18.81
2022-11-12T14:29:17.981Z,19.72
2022-11-12T14:31:45.203Z,19.55
2022-11-12T14:34:47.542Z,19.26
2022-11-12T14:37:41.418Z,18.83
2022-11-12T14:40:17.047Z,18.41
2022-11-12T14:42:43.794Z,18.69
2022-11-12T14:45:19.048Z,19.33
2022-11-12T14:47:49.380Z,19.26
2022-11-12T14:50:29.148Z,18.43
2022-11-12T14:53:07.649Z,18.77
2022-11-12T14:55:37.643Z,18.92
2022-11-12T14:58:05.417Z,19.96
2022-11-12T15:00:32.041Z,19.67
2022-11-12T15:03:01.543Z,20.22
2022-11-12T15:05:28.404Z,20.37
2022-11-12T15:08:10.149Z,20.36
2022-11-12T15:10:43.508Z,21.11
2022-11-12T15:13:13.637Z,20.74
2022-11-12T15:15:52.310Z,21.17
2022-11-12T15:18:24.119Z,20.88
2022-11-12T15:21:15.680Z,20.63
2022-11-12T15:24:02.685Z,20.30
2022-11-12T15:26:47.723Z,20.26
2022-11-12T15:29:30.115Z,20.23
2022-11-12T15:32:18.892Z,20.72
2022-11-12T15:34:46.948Z,20.36
2022-11-12T15:37:26.119Z,19.96
2022-11-12T15:40:03.680Z,21.07
2022-11-12T15:42:41.750Z,20.42
2022-11-12T15:45:21.674Z,21.04
2022-11-12T15:47:48.472Z,20.96
2022-11-12T15:50:24.110Z,21.31
2022-11-12T15:52:50.895Z,22.13
2022-11-12T15:55:18.945Z,22.24
2022-11-12T15:57:50.345Z,21.71
2022-11-12T16:00:23.243Z,21.85
2022-11-12T16:02:58.247Z,21.65
2022-11-12T16:05:25.193Z,21.47
2022-11-12T16:07:51.917Z,21.61
2022-11-12T16:10:19.630Z,21.81
2022-11-12T16:12:47.546Z,21.51
2022-11-12T16:15:18.459Z,21.77
2022-11-12T16:17:46.285Z,21.70
2022-11-12T16:20:17.413Z,21.38
2022-11-12T16:22:44.042Z,22.05
2022-11-12T16:25:10.655Z,22.12
2022-11-12T16:27:39.189Z,22.46
2022-11-12T16:30:18.020Z,22.17
2022-11-12T16:32:45.531Z,22.13
2022-11-12T16:35:12.177Z,22.78
2022-11-12T16:37:38.931Z,23.20
2022-11-12T16:40:07.504Z,23.47
2022-11-12T16:42:34.139Z,23.09
2022-11-12T16:45:00.787Z,24.58
2022-11-12T16:47:27.486Z,26.23
2022-11-12T16:49:54.137Z,26.39
2022-11-12T16:52:20.757Z,24.22
2022-11-12T16:54:47.390Z,23.59
2022-11-12T16:57:14.034Z,24.52
2022-11-12T16:59:40.664Z,23.51
2022-11-12T17:02:14.386Z,22.91
2022-11-12T17:04:41.033Z,22.51
2022-11-12T17:07:07.735Z,22.90
2022-11-12T17:09:34.437Z,22.94
2022-11-12T17:12:01.110Z,23.47
2022-11-12T17:14:28.657Z,24.38
2022-11-12T17:16:55.431Z,27.49
2022-11-12T17:19:22.055Z,27.24
2022-11-12T17:21:48.768Z,26.80
2022-11-12T17:24:15.488Z,25.81
2022-11-12T17:26:42.293Z,24.99
2022-11-12T17:29:08.903Z,24.64
2022-11-12T17:31:35.764Z,25.32
2022-11-12T17:34:08.286Z,26.74
2022-11-12T17:36:38.076Z,26.23
2022-11-12T17:39:13.124Z,26.94
2022-11-12T17:41:39.995Z,26.20
2022-11-12T17:44:07.245Z,26.83
2022-11-12T17:46:33.924Z,28.28
2022-11-12T17:49:00.544Z,27.91
2022-11-12T17:51:28.202Z,27.93
2022-11-12T17:53:56.234Z,28.66
2022-11-12T17:56:24.147Z,29.66
2022-11-12T17:58:51.439Z,31.00
2022-11-12T18:01:23.290Z,29.49
2022-11-12T18:03:52.797Z,30.22
2022-11-12T18:06:28.052Z,29.30
2022-11-12T18:08:56.195Z,28.58
2022-11-12T18:11:24.889Z,28.88
2022-11-12T18:13:51.733Z,27.79
2022-11-12T18:16:24.513Z,26.87
2022-11-12T18:18:55.216Z,26.20
2022-11-12T18:21:23.235Z,25.25
2022-11-12T18:23:49.856Z,23.62
2022-11-12T18:26:18.026Z,23.94
2022-11-12T18:28:50.158Z,24.25
2022-11-12T18:31:17.079Z,24.97
2022-11-12T18:33:43.877Z,25.13
2022-11-12T18:36:15.813Z,24.60
2022-11-12T18:38:42.481Z,25.85
2022-11-12T18:41:13.203Z,27.55
2022-11-12T18:43:41.075Z,28.72
2022-11-12T18:46:09.998Z,30.90
2022-11-12T18:48:38.162Z,26.37
2022-11-12T18:51:08.276Z,24.23
2022-11-12T18:53:36.604Z,23.63
2022-11-12T18:56:10.622Z,23.74
2022-11-12T18:58:37.381Z,24.19
2022-11-12T19:01:07.236Z,23.25
2022-11-12T19:03:34.701Z,23.92
2022-11-12T19:06:03.898Z,24.00
2022-11-12T19:08:30.551Z,23.83
2022-11-12T19:11:02.586Z,23.39
2022-11-12T19:13:29.882Z,22.90
2022-11-12T19:16:08.884Z,22.87
2022-11-12T19:18:35.547Z,22.79
2022-11-12T19:21:05.976Z,24.01
2022-11-12T19:23:33.248Z,24.02
2022-11-12T19:26:05.557Z,23.56
2022-11-12T19:28:33.791Z,25.64
2022-11-12T19:31:14.414Z,44.08
2022-11-12T19:33:41.638Z,33.11
2022-11-12T19:36:11.718Z,25.15
2022-11-12T19:38:38.398Z,24.43
2022-11-12T19:41:16.150Z,24.76
2022-11-12T19:43:45.668Z,23.34
2022-11-12T19:46:12.499Z,24.09
2022-11-12T19:48:39.152Z,23.65
2022-11-12T19:51:08.606Z,23.43
2022-11-12T19:53:37.854Z,24.07
2022-11-12T19:56:06.497Z,23.94
2022-11-12T19:58:34.062Z,23.46
2022-11-12T20:01:09.627Z,22.96
2022-11-12T20:03:37.640Z,24.09
2022-11-12T20:06:06.768Z,23.72
2022-11-12T20:08:34.302Z,23.13
2022-11-12T20:11:02.443Z,24.61
2022-11-12T20:13:29.077Z,24.31
2022-11-12T20:15:56.057Z,24.61
2022-11-12T20:18:23.115Z,25.50
2022-11-12T20:20:52.831Z,24.84
2022-11-12T20:23:19.657Z,24.94
2022-11-12T20:25:46.354Z,27.53
2022-11-12T20:28:13.081Z,26.09
2022-11-12T20:30:39.779Z,28.73
2022-11-12T20:33:06.549Z,27.60
2022-11-12T20:35:37.240Z,27.12
2022-11-12T20:38:04.630Z,23.27
2022-11-12T20:40:32.508Z,22.90
2022-11-12T20:42:59.223Z,23.02
2022-11-12T20:45:26.313Z,22.94
2022-11-12T20:47:57.244Z,23.15
2022-11-12T20:50:24.219Z,23.12
2022-11-12T20:52:50.893Z,21.80
2022-11-12T20:55:18.474Z,20.75
2022-11-12T20:57:45.285Z,20.11
2022-11-12T21:00:14.725Z,20.32
2022-11-12T21:02:42.646Z,19.17
2022-11-12T21:05:09.431Z,18.93
2022-11-12T21:07:37.186Z,20.02
2022-11-12T21:10:04.354Z,19.81
2022-11-12T21:12:31.085Z,18.90
2022-11-12T21:14:57.762Z,18.41
2022-11-12T21:17:24.348Z,18.72
2022-11-12T21:19:51.130Z,18.12
2022-11-12T21:22:17.931Z,18.45
2022-11-12T21:24:44.761Z,18.26
2022-11-12T21:27:12.852Z,19.02
2022-11-12T21:29:39.844Z,18.85
2022-11-12T21:32:06.624Z,19.65
2022-11-12T21:34:33.397Z,19.98
2022-11-12T21:37:01.044Z,20.10
2022-11-12T21:39:27.688Z,20.07
2022-11-12T21:41:54.394Z,21.09
2022-11-12T21:44:21.469Z,20.80
2022-11-12T21:46:48.164Z,21.53
2022-11-12T21:49:14.749Z,20.83
2022-11-12T21:51:41.341Z,20.96
2022-11-12T21:54:08.101Z,19.09
2022-11-12T21:56:34.994Z,17.68
2022-11-12T21:59:01.997Z,17.37
2022-11-12T22:01:31.533Z,17.58
2022-11-12T22:03:58.463Z,17.25
2022-11-12T22:06:29.140Z,17.19
2022-11-12T22:08:57.606Z,17.64
2022-11-12T22:11:25.274Z,18.96
2022-11-12T22:13:51.890Z,19.27
2022-11-12T22:16:21.673Z,18.96
2022-11-12T22:18:51.960Z,20.08
2022-11-12T22:21:22.424Z,21.10
2022-11-12T22:23:49.854Z,22.63
2022-11-12T22:26:19.859Z,26.08
2022-11-12T22:28:47.138Z,20.82
2022-11-12T22:31:19.607Z,17.63
2022-11-12T22:33:46.641Z,17.01
2022-11-12T22:36:19.407Z,21.90
2022-11-12T22:38:48.004Z,20.38
2022-11-12T22:41:17.948Z,19.13
2022-11-12T22:43:52.141Z,18.44
2022-11-12T22:46:22.095Z,18.15
2022-11-12T22:48:48.842Z,16.38
2022-11-12T22:51:18.765Z,14.83
2022-11-12T22:53:45.901Z,14.30
2022-11-12T22:56:15.996Z,14.53
2022-11-12T22:58:44.915Z,14.25
2022-11-12T23:01:37.833Z,14.74
2022-11-12T23:04:06.740Z,14.50
2022-11-12T23:06:34.708Z,15.42
2022-11-12T23:09:01.729Z,15.39
2022-11-12T23:11:28.811Z,14.96
2022-11-12T23:13:57.267Z,15.30
2022-11-12T23:16:28.323Z,15.65
2022-11-12T23:18:55.096Z,15.12
2022-11-12T23:21:25.340Z,14.95
2022-11-12T23:23:52.695Z,15.28
2022-11-12T23:26:22.544Z,15.74
2022-11-12T23:28:50.271Z,15.31
2022-11-12T23:31:23.414Z,15.77
2022-11-12T23:33:52.934Z,15.70
2022-11-12T23:36:20.680Z,15.55
2022-11-12T23:38:47.838Z,15.69
2022-11-12T23:41:18.680Z,15.84
2022-11-12T23:43:45.701Z,16.00
2022-11-12T23:46:13.055Z,16.26
2022-11-12T23:48:39.866Z,16.07
2022-11-12T23:51:17.389Z,15.94
2022-11-12T23:53:44.104Z,16.19
2022-11-12T23:56:13.390Z,16.40
2022-11-12T23:58:42.052Z,15.70
